sensor_id;sensor_type;location;lat;lon;timestamp;temperature;humidity
29813;DHT22;16707;48.106;11.548;2023-07-13T00:00:08;19.30;99.90
29813;DHT22;16707;48.106;11.548;2023-07-13T00:02:35;19.20;99.90
29813;DHT22;16707;48.106;11.548;2023-07-13T00:05:03;19.40;99.90
29813;DHT22;16707;48.106;11.548;2023-07-13T00:07:30;19.30;99.90
29813;DHT22;16707;48.106;11.548;2023-07-13T00:09:57;19.20;99.90
29813;DHT22;16707;48.106;11.548;2023-07-13T00:12:28;19.20;99.90
29813;DHT22;16707;48.106;11.548;2023-07-13T00:14:57;19.10;99.90
29813;DHT22;16707;48.106;11.548;2023-07-13T00:17:25;19.10;99.90
29813;DHT22;16707;48.106;11.548;2023-07-13T00:19:52;19.20;99.90
29813;DHT22;16707;48.106;11.548;2023-07-13T00:22:21;19.20;99.90
29813;DHT22;16707;48.106;11.548;2023-07-13T00:24:51;19.30;99.90
29813;DHT22;16707;48.106;11.548;2023-07-13T00:27:19;19.30;99.90
29813;DHT22;16707;48.106;11.548;2023-07-13T00:29:47;19.40;99.90
29813;DHT22;16707;48.106;11.548;2023-07-13T00:32:14;19.40;99.90
29813;DHT22;16707;48.106;11.548;2023-07-13T00:34:41;19.40;99.90
29813;DHT22;16707;48.106;11.548;2023-07-13T00:37:08;19.40;99.90
29813;DHT22;16707;48.106;11.548;2023-07-13T00:39:35;19.40;99.90
29813;DHT22;16707;48.106;11.548;2023-07-13T00:42:03;19.30;99.90
29813;DHT22;16707;48.106;11.548;2023-07-13T00:44:31;19.10;99.90
29813;DHT22;16707;48.106;11.548;2023-07-13T00:46:59;18.90;99.90
29813;DHT22;16707;48.106;11.548;2023-07-13T00:49:29;18.80;99.90
29813;DHT22;16707;48.106;11.548;2023-07-13T00:51:59;18.80;99.90
29813;DHT22;16707;48.106;11.548;2023-07-13T00:54:30;18.70;99.90
29813;DHT22;16707;48.106;11.548;2023-07-13T00:57:01;18.70;99.90
29813;DHT22;16707;48.106;11.548;2023-07-13T00:59:30;18.70;99.90
29813;DHT22;16707;48.106;11.548;2023-07-13T01:01:59;18.70;99.90
29813;DHT22;16707;48.106;11.548;2023-07-13T01:04:26;18.60;99.90
29813;DHT22;16707;48.106;11.548;2023-07-13T01:06:53;18.70;99.90
29813;DHT22;16707;48.106;11.548;2023-07-13T01:09:20;18.70;99.90
29813;DHT22;16707;48.106;11.548;2023-07-13T01:11:48;18.70;99.90
29813;DHT22;16707;48.106;11.548;2023-07-13T01:14:15;18.80;99.90
29813;DHT22;16707;48.106;11.548;2023-07-13T01:16:45;18.70;99.90
29813;DHT22;16707;48.106;11.548;2023-07-13T01:19:25;18.50;99.90
29813;DHT22;16707;48.106;11.548;2023-07-13T01:22:03;18.50;99.90
29813;DHT22;16707;48.106;11.548;2023-07-13T01:24:34;18.40;99.90
29813;DHT22;16707;48.106;11.548;2023-07-13T01:27:03;18.40;99.90
29813;DHT22;16707;48.106;11.548;2023-07-13T01:29:32;18.30;99.90
29813;DHT22;16707;48.106;11.548;2023-07-13T01:32:00;18.30;99.90
29813;DHT22;16707;48.106;11.548;2023-07-13T01:34:27;18.20;99.90
29813;DHT22;16707;48.106;11.548;2023-07-13T01:36:54;18.10;99.90
29813;DHT22;16707;48.106;11.548;2023-07-13T01:39:23;18.10;99.90
29813;DHT22;16707;48.106;11.548;2023-07-13T01:41:50;18.10;99.90
29813;DHT22;16707;48.106;11.548;2023-07-13T01:44:16;18.10;99.90
29813;DHT22;16707;48.106;11.548;2023-07-13T01:46:43;18.10;99.90
29813;DHT22;16707;48.106;11.548;2023-07-13T01:49:11;18.10;99.90
29813;DHT22;16707;48.106;11.548;2023-07-13T01:51:38;18.00;99.90
29813;DHT22;16707;48.106;11.548;2023-07-13T01:54:05;18.00;99.90
29813;DHT22;16707;48.106;11.548;2023-07-13T01:56:33;17.90;99.90
29813;DHT22;16707;48.106;11.548;2023-07-13T01:59:00;17.90;99.90
29813;DHT22;16707;48.106;11.548;2023-07-13T02:01:27;17.90;99.90
29813;DHT22;16707;48.106;11.548;2023-07-13T02:03:54;17.90;99.90
29813;DHT22;16707;48.106;11.548;2023-07-13T02:06:21;17.90;99.90
29813;DHT22;16707;48.106;11.548;2023-07-13T02:08:48;17.80;99.90
29813;DHT22;16707;48.106;11.548;2023-07-13T02:11:15;17.80;99.90
29813;DHT22;16707;48.106;11.548;2023-07-13T02:13:44;17.80;99.90
29813;DHT22;16707;48.106;11.548;2023-07-13T02:16:11;17.80;99.90
29813;DHT22;16707;48.106;11.548;2023-07-13T02:18:38;17.80;99.90
29813;DHT22;16707;48.106;11.548;2023-07-13T02:21:05;17.80;99.90
29813;DHT22;16707;48.106;11.548;2023-07-13T02:23:32;17.70;99.90
29813;DHT22;16707;48.106;11.548;2023-07-13T02:26:00;17.70;99.90
29813;DHT22;16707;48.106;11.548;2023-07-13T02:28:28;17.80;99.90
29813;DHT22;16707;48.106;11.548;2023-07-13T02:31:04;17.80;99.90
29813;DHT22;16707;48.106;11.548;2023-07-13T02:33:32;17.90;99.90
29813;DHT22;16707;48.106;11.548;2023-07-13T02:35:59;18.00;99.90
29813;DHT22;16707;48.106;11.548;2023-07-13T02:38:26;18.00;99.90
29813;DHT22;16707;48.106;11.548;2023-07-13T02:40:53;18.00;99.90
29813;DHT22;16707;48.106;11.548;2023-07-13T02:43:20;18.00;99.90
29813;DHT22;16707;48.106;11.548;2023-07-13T02:45:47;18.00;99.90
29813;DHT22;16707;48.106;11.548;2023-07-13T02:48:15;18.00;99.90
29813;DHT22;16707;48.106;11.548;2023-07-13T02:50:42;18.10;99.90
29813;DHT22;16707;48.106;11.548;2023-07-13T02:53:09;18.10;99.90
29813;DHT22;16707;48.106;11.548;2023-07-13T02:55:36;18.00;99.90
29813;DHT22;16707;48.106;11.548;2023-07-13T02:58:03;18.00;99.90
29813;DHT22;16707;48.106;11.548;2023-07-13T03:00:31;18.00;99.90
29813;DHT22;16707;48.106;11.548;2023-07-13T03:02:58;18.10;99.90
29813;DHT22;16707;48.106;11.548;2023-07-13T03:05:27;18.00;99.90
29813;DHT22;16707;48.106;11.548;2023-07-13T03:07:55;18.10;99.90
29813;DHT22;16707;48.106;11.548;2023-07-13T03:10:23;18.00;99.90
29813;DHT22;16707;48.106;11.548;2023-07-13T03:12:50;18.00;99.90
29813;DHT22;16707;48.106;11.548;2023-07-13T03:15:17;18.00;99.90
29813;DHT22;16707;48.106;11.548;2023-07-13T03:17:44;18.00;99.90
29813;DHT22;16707;48.106;11.548;2023-07-13T03:20:11;17.90;99.90
29813;DHT22;16707;48.106;11.548;2023-07-13T03:22:39;17.80;99.90
29813;DHT22;16707;48.106;11.548;2023-07-13T03:25:07;17.70;99.90
29813;DHT22;16707;48.106;11.548;2023-07-13T03:27:35;17.70;99.90
29813;DHT22;16707;48.106;11.548;2023-07-13T03:30:02;17.60;99.90
29813;DHT22;16707;48.106;11.548;2023-07-13T03:32:29;17.50;99.90
29813;DHT22;16707;48.106;11.548;2023-07-13T03:34:57;17.40;99.90
29813;DHT22;16707;48.106;11.548;2023-07-13T03:37:24;17.40;99.90
29813;DHT22;16707;48.106;11.548;2023-07-13T03:39:52;17.40;99.90
29813;DHT22;16707;48.106;11.548;2023-07-13T03:42:19;17.20;99.90
29813;DHT22;16707;48.106;11.548;2023-07-13T03:44:46;17.30;99.90
29813;DHT22;16707;48.106;11.548;2023-07-13T03:47:17;17.30;99.90
29813;DHT22;16707;48.106;11.548;2023-07-13T03:49:44;17.30;99.90
29813;DHT22;16707;48.106;11.548;2023-07-13T03:52:12;17.30;99.90
29813;DHT22;16707;48.106;11.548;2023-07-13T03:54:39;17.30;99.90
29813;DHT22;16707;48.106;11.548;2023-07-13T03:57:08;17.30;99.90
29813;DHT22;16707;48.106;11.548;2023-07-13T03:59:35;17.30;99.90
29813;DHT22;16707;48.106;11.548;2023-07-13T04:02:02;17.40;99.90
29813;DHT22;16707;48.106;11.548;2023-07-13T04:04:30;17.40;99.90
29813;DHT22;16707;48.106;11.548;2023-07-13T04:06:57;17.40;99.90
29813;DHT22;16707;48.106;11.548;2023-07-13T04:09:25;17.50;99.90
29813;DHT22;16707;48.106;11.548;2023-07-13T04:11:52;17.40;99.90
29813;DHT22;16707;48.106;11.548;2023-07-13T04:14:20;17.40;99.90
29813;DHT22;16707;48.106;11.548;2023-07-13T04:16:47;17.40;99.90
29813;DHT22;16707;48.106;11.548;2023-07-13T04:19:14;17.30;99.90
29813;DHT22;16707;48.106;11.548;2023-07-13T04:21:41;17.30;99.90
29813;DHT22;16707;48.106;11.548;2023-07-13T04:24:08;17.30;99.90
29813;DHT22;16707;48.106;11.548;2023-07-13T04:26:35;17.20;99.90
29813;DHT22;16707;48.106;11.548;2023-07-13T04:29:04;17.30;99.90
29813;DHT22;16707;48.106;11.548;2023-07-13T04:31:33;17.30;99.90
29813;DHT22;16707;48.106;11.548;2023-07-13T04:34:00;17.30;99.90
29813;DHT22;16707;48.106;11.548;2023-07-13T04:36:28;17.30;99.90
29813;DHT22;16707;48.106;11.548;2023-07-13T04:38:55;17.40;99.90
29813;DHT22;16707;48.106;11.548;2023-07-13T04:41:22;17.30;99.90
29813;DHT22;16707;48.106;11.548;2023-07-13T04:43:49;17.40;99.90
29813;DHT22;16707;48.106;11.548;2023-07-13T04:46:17;17.50;99.90
29813;DHT22;16707;48.106;11.548;2023-07-13T04:48:46;17.70;99.90
29813;DHT22;16707;48.106;11.548;2023-07-13T04:51:13;17.80;99.90
29813;DHT22;16707;48.106;11.548;2023-07-13T04:53:40;18.00;99.90
29813;DHT22;16707;48.106;11.548;2023-07-13T04:56:07;18.10;99.90
29813;DHT22;16707;48.106;11.548;2023-07-13T04:58:34;18.10;99.90
29813;DHT22;16707;48.106;11.548;2023-07-13T05:01:01;18.30;99.90
29813;DHT22;16707;48.106;11.548;2023-07-13T05:03:28;18.30;99.90
29813;DHT22;16707;48.106;11.548;2023-07-13T05:05:58;18.40;99.90
29813;DHT22;16707;48.106;11.548;2023-07-13T05:08:26;18.50;99.90
29813;DHT22;16707;48.106;11.548;2023-07-13T05:10:53;18.50;99.90
29813;DHT22;16707;48.106;11.548;2023-07-13T05:13:20;18.50;99.90
29813;DHT22;16707;48.106;11.548;2023-07-13T05:15:55;18.50;99.90
29813;DHT22;16707;48.106;11.548;2023-07-13T05:18:22;18.60;99.90
29813;DHT22;16707;48.106;11.548;2023-07-13T05:20:58;18.60;99.90
29813;DHT22;16707;48.106;11.548;2023-07-13T05:23:26;18.60;99.90
29813;DHT22;16707;48.106;11.548;2023-07-13T05:25:53;18.50;99.90
29813;DHT22;16707;48.106;11.548;2023-07-13T05:28:21;18.50;99.90
29813;DHT22;16707;48.106;11.548;2023-07-13T05:30:49;18.50;99.90
29813;DHT22;16707;48.106;11.548;2023-07-13T05:33:17;18.50;99.90
29813;DHT22;16707;48.106;11.548;2023-07-13T05:35:44;18.50;99.90
29813;DHT22;16707;48.106;11.548;2023-07-13T05:38:12;18.50;99.90
29813;DHT22;16707;48.106;11.548;2023-07-13T05:40:39;18.50;99.90
29813;DHT22;16707;48.106;11.548;2023-07-13T05:43:06;18.50;99.90
29813;DHT22;16707;48.106;11.548;2023-07-13T05:45:32;18.60;99.90
29813;DHT22;16707;48.106;11.548;2023-07-13T05:47:59;18.70;99.90
29813;DHT22;16707;48.106;11.548;2023-07-13T05:50:26;18.70;99.90
29813;DHT22;16707;48.106;11.548;2023-07-13T05:52:53;18.80;99.90
29813;DHT22;16707;48.106;11.548;2023-07-13T05:55:23;19.00;99.90
29813;DHT22;16707;48.106;11.548;2023-07-13T05:57:50;19.20;99.90
29813;DHT22;16707;48.106;11.548;2023-07-13T06:00:17;19.50;99.90
29813;DHT22;16707;48.106;11.548;2023-07-13T06:02:44;19.60;99.90
29813;DHT22;16707;48.106;11.548;2023-07-13T06:05:11;19.70;99.90
29813;DHT22;16707;48.106;11.548;2023-07-13T06:07:38;20.00;99.90
29813;DHT22;16707;48.106;11.548;2023-07-13T06:10:06;20.20;99.90
29813;DHT22;16707;48.106;11.548;2023-07-13T06:12:34;20.40;99.90
29813;DHT22;16707;48.106;11.548;2023-07-13T06:15:02;20.40;99.90
29813;DHT22;16707;48.106;11.548;2023-07-13T06:17:29;20.30;99.90
29813;DHT22;16707;48.106;11.548;2023-07-13T06:19:56;20.50;99.90
29813;DHT22;16707;48.106;11.548;2023-07-13T06:22:23;20.50;99.90
29813;DHT22;16707;48.106;11.548;2023-07-13T06:24:50;20.90;99.90
29813;DHT22;16707;48.106;11.548;2023-07-13T06:27:18;21.50;99.90
29813;DHT22;16707;48.106;11.548;2023-07-13T06:29:46;21.70;99.90
29813;DHT22;16707;48.106;11.548;2023-07-13T06:32:13;22.00;99.90
29813;DHT22;16707;48.106;11.548;2023-07-13T06:34:40;22.20;99.90
29813;DHT22;16707;48.106;11.548;2023-07-13T06:37:08;22.40;99.90
29813;DHT22;16707;48.106;11.548;2023-07-13T06:39:35;22.70;99.90
29813;DHT22;16707;48.106;11.548;2023-07-13T06:42:02;22.70;99.90
29813;DHT22;16707;48.106;11.548;2023-07-13T06:44:30;22.40;99.90
29813;DHT22;16707;48.106;11.548;2023-07-13T06:46:58;21.70;99.90
29813;DHT22;16707;48.106;11.548;2023-07-13T06:49:25;21.30;99.90
29813;DHT22;16707;48.106;11.548;2023-07-13T06:51:52;21.10;99.90
29813;DHT22;16707;48.106;11.548;2023-07-13T06:54:19;21.10;99.90
29813;DHT22;16707;48.106;11.548;2023-07-13T06:56:46;21.10;99.90
29813;DHT22;16707;48.106;11.548;2023-07-13T06:59:13;21.00;99.90
29813;DHT22;16707;48.106;11.548;2023-07-13T07:01:46;20.90;99.90
29813;DHT22;16707;48.106;11.548;2023-07-13T07:04:14;21.00;99.90
29813;DHT22;16707;48.106;11.548;2023-07-13T07:06:41;20.90;99.90
29813;DHT22;16707;48.106;11.548;2023-07-13T07:09:08;21.00;99.90
29813;DHT22;16707;48.106;11.548;2023-07-13T07:11:35;21.00;99.90
29813;DHT22;16707;48.106;11.548;2023-07-13T07:14:02;21.30;99.90
29813;DHT22;16707;48.106;11.548;2023-07-13T07:16:30;21.40;99.90
29813;DHT22;16707;48.106;11.548;2023-07-13T07:18:57;21.40;99.90
29813;DHT22;16707;48.106;11.548;2023-07-13T07:21:25;21.20;99.90
29813;DHT22;16707;48.106;11.548;2023-07-13T07:23:52;21.00;99.90
29813;DHT22;16707;48.106;11.548;2023-07-13T07:26:19;21.00;99.90
29813;DHT22;16707;48.106;11.548;2023-07-13T07:28:46;20.90;99.90
29813;DHT22;16707;48.106;11.548;2023-07-13T07:31:13;20.90;99.90
29813;DHT22;16707;48.106;11.548;2023-07-13T07:33:40;20.70;99.90
29813;DHT22;16707;48.106;11.548;2023-07-13T07:36:07;20.80;99.90
29813;DHT22;16707;48.106;11.548;2023-07-13T07:38:35;20.70;99.90
29813;DHT22;16707;48.106;11.548;2023-07-13T07:41:03;20.60;99.90
29813;DHT22;16707;48.106;11.548;2023-07-13T07:43:30;20.70;99.90
29813;DHT22;16707;48.106;11.548;2023-07-13T07:45:58;20.70;99.90
29813;DHT22;16707;48.106;11.548;2023-07-13T07:48:24;20.70;99.90
29813;DHT22;16707;48.106;11.548;2023-07-13T07:50:51;20.50;99.90
29813;DHT22;16707;48.106;11.548;2023-07-13T07:53:19;20.40;99.90
29813;DHT22;16707;48.106;11.548;2023-07-13T07:55:47;20.40;99.90
29813;DHT22;16707;48.106;11.548;2023-07-13T07:58:14;20.50;99.90
29813;DHT22;16707;48.106;11.548;2023-07-13T08:00:41;20.40;99.90
29813;DHT22;16707;48.106;11.548;2023-07-13T08:03:09;20.30;99.90
29813;DHT22;16707;48.106;11.548;2023-07-13T08:05:36;20.20;99.90
29813;DHT22;16707;48.106;11.548;2023-07-13T08:08:04;20.10;99.90
29813;DHT22;16707;48.106;11.548;2023-07-13T08:10:31;20.00;99.90
29813;DHT22;16707;48.106;11.548;2023-07-13T08:12:59;19.90;99.90
29813;DHT22;16707;48.106;11.548;2023-07-13T08:15:26;19.80;99.90
29813;DHT22;16707;48.106;11.548;2023-07-13T08:17:53;19.70;99.90
29813;DHT22;16707;48.106;11.548;2023-07-13T08:20:20;19.60;99.90
29813;DHT22;16707;48.106;11.548;2023-07-13T08:22:47;19.50;99.90
29813;DHT22;16707;48.106;11.548;2023-07-13T08:25:14;19.40;99.90
29813;DHT22;16707;48.106;11.548;2023-07-13T08:27:41;19.30;99.90
29813;DHT22;16707;48.106;11.548;2023-07-13T08:30:10;19.20;99.90
29813;DHT22;16707;48.106;11.548;2023-07-13T08:32:37;19.10;99.90
29813;DHT22;16707;48.106;11.548;2023-07-13T08:35:05;19.20;99.90
29813;DHT22;16707;48.106;11.548;2023-07-13T08:37:32;19.20;99.90
29813;DHT22;16707;48.106;11.548;2023-07-13T08:39:59;19.10;99.90
29813;DHT22;16707;48.106;11.548;2023-07-13T08:42:37;19.00;99.90
29813;DHT22;16707;48.106;11.548;2023-07-13T08:45:18;19.00;99.90
29813;DHT22;16707;48.106;11.548;2023-07-13T08:47:51;19.00;99.90
29813;DHT22;16707;48.106;11.548;2023-07-13T08:50:23;19.20;99.90
29813;DHT22;16707;48.106;11.548;2023-07-13T08:52:55;19.30;99.90
29813;DHT22;16707;48.106;11.548;2023-07-13T08:55:27;19.50;99.90
29813;DHT22;16707;48.106;11.548;2023-07-13T08:58:03;19.60;99.90
29813;DHT22;16707;48.106;11.548;2023-07-13T09:00:42;19.60;99.90
29813;DHT22;16707;48.106;11.548;2023-07-13T09:03:18;19.60;99.90
29813;DHT22;16707;48.106;11.548;2023-07-13T09:05:51;19.70;99.90
29813;DHT22;16707;48.106;11.548;2023-07-13T09:08:34;19.70;99.90
29813;DHT22;16707;48.106;11.548;2023-07-13T09:11:18;19.70;99.90
29813;DHT22;16707;48.106;11.548;2023-07-13T09:13:56;19.80;99.90
29813;DHT22;16707;48.106;11.548;2023-07-13T09:16:25;19.90;99.90
29813;DHT22;16707;48.106;11.548;2023-07-13T09:18:56;19.90;99.90
29813;DHT22;16707;48.106;11.548;2023-07-13T09:21:30;20.00;99.90
29813;DHT22;16707;48.106;11.548;2023-07-13T09:24:01;20.10;99.90
29813;DHT22;16707;48.106;11.548;2023-07-13T09:26:31;20.20;99.90
29813;DHT22;16707;48.106;11.548;2023-07-13T09:29:03;20.40;99.90
29813;DHT22;16707;48.106;11.548;2023-07-13T09:31:34;20.60;99.90
29813;DHT22;16707;48.106;11.548;2023-07-13T09:34:09;20.60;99.90
29813;DHT22;16707;48.106;11.548;2023-07-13T09:36:37;20.70;99.90
29813;DHT22;16707;48.106;11.548;2023-07-13T09:39:10;20.80;99.90
29813;DHT22;16707;48.106;11.548;2023-07-13T09:41:46;20.80;99.90
29813;DHT22;16707;48.106;11.548;2023-07-13T09:44:17;20.80;99.90
29813;DHT22;16707;48.106;11.548;2023-07-13T09:46:51;20.70;99.90
29813;DHT22;16707;48.106;11.548;2023-07-13T09:49:24;20.80;99.90
29813;DHT22;16707;48.106;11.548;2023-07-13T09:51:57;20.90;99.90
29813;DHT22;16707;48.106;11.548;2023-07-13T09:54:26;21.20;99.90
29813;DHT22;16707;48.106;11.548;2023-07-13T09:56:57;21.50;99.90
29813;DHT22;16707;48.106;11.548;2023-07-13T09:59:27;21.80;99.90
29813;DHT22;16707;48.106;11.548;2023-07-13T10:01:57;22.00;99.90
29813;DHT22;16707;48.106;11.548;2023-07-13T10:04:30;22.30;99.40
29813;DHT22;16707;48.106;11.548;2023-07-13T10:07:05;22.50;98.80
29813;DHT22;16707;48.106;11.548;2023-07-13T10:09:33;22.80;98.70
29813;DHT22;16707;48.106;11.548;2023-07-13T10:12:01;23.00;96.70
29813;DHT22;16707;48.106;11.548;2023-07-13T10:14:29;23.10;95.90
29813;DHT22;16707;48.106;11.548;2023-07-13T10:17:00;23.60;95.30
29813;DHT22;16707;48.106;11.548;2023-07-13T10:19:31;23.70;94.30
29813;DHT22;16707;48.106;11.548;2023-07-13T10:22:00;24.20;93.20
29813;DHT22;16707;48.106;11.548;2023-07-13T10:24:31;24.40;90.80
29813;DHT22;16707;48.106;11.548;2023-07-13T10:27:03;24.50;87.90
29813;DHT22;16707;48.106;11.548;2023-07-13T10:29:45;24.70;88.50
29813;DHT22;16707;48.106;11.548;2023-07-13T10:32:14;25.10;81.90
29813;DHT22;16707;48.106;11.548;2023-07-13T10:34:44;25.10;78.90
29813;DHT22;16707;48.106;11.548;2023-07-13T10:37:17;25.40;75.10
29813;DHT22;16707;48.106;11.548;2023-07-13T10:39:46;25.10;74.40
29813;DHT22;16707;48.106;11.548;2023-07-13T10:42:18;25.20;82.90
29813;DHT22;16707;48.106;11.548;2023-07-13T10:44:51;25.00;72.40
29813;DHT22;16707;48.106;11.548;2023-07-13T10:47:20;25.10;73.10
29813;DHT22;16707;48.106;11.548;2023-07-13T10:49:56;25.50;70.60
29813;DHT22;16707;48.106;11.548;2023-07-13T10:52:45;25.70;64.90
29813;DHT22;16707;48.106;11.548;2023-07-13T10:55:33;25.60;67.20
29813;DHT22;16707;48.106;11.548;2023-07-13T10:58:03;25.00;71.80
29813;DHT22;16707;48.106;11.548;2023-07-13T11:00:46;25.30;71.30
29813;DHT22;16707;48.106;11.548;2023-07-13T11:03:20;25.40;62.80
29813;DHT22;16707;48.106;11.548;2023-07-13T11:05:50;25.30;65.10
29813;DHT22;16707;48.106;11.548;2023-07-13T11:08:32;24.90;66.50
29813;DHT22;16707;48.106;11.548;2023-07-13T11:11:02;25.20;70.70
29813;DHT22;16707;48.106;11.548;2023-07-13T11:13:39;25.30;68.50
29813;DHT22;16707;48.106;11.548;2023-07-13T11:16:38;25.40;71.90
29813;DHT22;16707;48.106;11.548;2023-07-13T11:19:38;25.10;65.30
29813;DHT22;16707;48.106;11.548;2023-07-13T11:22:16;25.30;66.10
29813;DHT22;16707;48.106;11.548;2023-07-13T11:24:59;25.70;64.80
29813;DHT22;16707;48.106;11.548;2023-07-13T11:27:36;25.60;63.90
29813;DHT22;16707;48.106;11.548;2023-07-13T11:30:31;26.10;63.70
29813;DHT22;16707;48.106;11.548;2023-07-13T11:33:13;26.20;63.90
29813;DHT22;16707;48.106;11.548;2023-07-13T11:35:57;26.10;63.70
29813;DHT22;16707;48.106;11.548;2023-07-13T11:38:31;25.80;64.40
29813;DHT22;16707;48.106;11.548;2023-07-13T11:41:03;25.00;65.40
29813;DHT22;16707;48.106;11.548;2023-07-13T11:43:31;24.80;60.10
29813;DHT22;16707;48.106;11.548;2023-07-13T11:46:13;25.10;62.70
29813;DHT22;16707;48.106;11.548;2023-07-13T11:48:41;24.80;66.00
29813;DHT22;16707;48.106;11.548;2023-07-13T11:51:18;24.50;69.40
29813;DHT22;16707;48.106;11.548;2023-07-13T11:53:50;24.20;69.20
29813;DHT22;16707;48.106;11.548;2023-07-13T11:56:18;24.00;70.00
29813;DHT22;16707;48.106;11.548;2023-07-13T11:58:49;23.80;70.70
29813;DHT22;16707;48.106;11.548;2023-07-13T12:01:21;24.00;73.10
29813;DHT22;16707;48.106;11.548;2023-07-13T12:03:49;24.20;71.90
29813;DHT22;16707;48.106;11.548;2023-07-13T12:06:27;24.50;70.20
29813;DHT22;16707;48.106;11.548;2023-07-13T12:08:57;24.60;70.80
29813;DHT22;16707;48.106;11.548;2023-07-13T12:11:25;25.10;69.60
29813;DHT22;16707;48.106;11.548;2023-07-13T12:13:52;25.80;65.10
29813;DHT22;16707;48.106;11.548;2023-07-13T12:16:28;25.40;61.40
29813;DHT22;16707;48.106;11.548;2023-07-13T12:18:59;25.40;63.80
29813;DHT22;16707;48.106;11.548;2023-07-13T12:21:31;25.40;64.60
29813;DHT22;16707;48.106;11.548;2023-07-13T12:24:00;25.40;60.60
29813;DHT22;16707;48.106;11.548;2023-07-13T12:26:30;25.60;58.60
29813;DHT22;16707;48.106;11.548;2023-07-13T12:28:59;25.80;59.10
29813;DHT22;16707;48.106;11.548;2023-07-13T12:31:33;25.70;62.30
29813;DHT22;16707;48.106;11.548;2023-07-13T12:34:06;25.90;62.50
29813;DHT22;16707;48.106;11.548;2023-07-13T12:36:38;26.00;62.40
29813;DHT22;16707;48.106;11.548;2023-07-13T12:39:13;26.20;60.30
29813;DHT22;16707;48.106;11.548;2023-07-13T12:41:42;26.20;59.90
29813;DHT22;16707;48.106;11.548;2023-07-13T12:44:12;26.30;58.70
29813;DHT22;16707;48.106;11.548;2023-07-13T12:46:52;25.90;59.60
29813;DHT22;16707;48.106;11.548;2023-07-13T12:49:24;26.30;61.60
29813;DHT22;16707;48.106;11.548;2023-07-13T12:52:00;26.20;62.10
29813;DHT22;16707;48.106;11.548;2023-07-13T12:54:29;26.30;61.60
29813;DHT22;16707;48.106;11.548;2023-07-13T12:56:58;26.00;60.10
29813;DHT22;16707;48.106;11.548;2023-07-13T12:59:31;25.90;61.40
29813;DHT22;16707;48.106;11.548;2023-07-13T13:02:17;26.00;62.40
29813;DHT22;16707;48.106;11.548;2023-07-13T13:04:50;25.90;60.60
29813;DHT22;16707;48.106;11.548;2023-07-13T13:07:18;26.00;59.40
29813;DHT22;16707;48.106;11.548;2023-07-13T13:09:45;26.30;58.80
29813;DHT22;16707;48.106;11.548;2023-07-13T13:12:13;25.90;61.80
29813;DHT22;16707;48.106;11.548;2023-07-13T13:14:40;25.50;60.20
29813;DHT22;16707;48.106;11.548;2023-07-13T13:17:18;25.40;60.80
29813;DHT22;16707;48.106;11.548;2023-07-13T13:19:45;25.30;63.30
29813;DHT22;16707;48.106;11.548;2023-07-13T13:22:13;25.30;60.40
29813;DHT22;16707;48.106;11.548;2023-07-13T13:24:41;25.50;59.60
29813;DHT22;16707;48.106;11.548;2023-07-13T13:27:15;25.50;59.20
29813;DHT22;16707;48.106;11.548;2023-07-13T13:29:43;25.30;57.90
29813;DHT22;16707;48.106;11.548;2023-07-13T13:32:12;25.10;59.20
29813;DHT22;16707;48.106;11.548;2023-07-13T13:34:39;25.40;61.00
29813;DHT22;16707;48.106;11.548;2023-07-13T13:37:17;25.90;59.50
29813;DHT22;16707;48.106;11.548;2023-07-13T13:39:47;26.20;57.40
29813;DHT22;16707;48.106;11.548;2023-07-13T13:42:15;26.10;57.90
29813;DHT22;16707;48.106;11.548;2023-07-13T13:44:42;26.30;58.20
29813;DHT22;16707;48.106;11.548;2023-07-13T13:47:29;26.00;56.20
29813;DHT22;16707;48.106;11.548;2023-07-13T13:49:58;25.90;57.80
29813;DHT22;16707;48.106;11.548;2023-07-13T13:52:25;25.90;57.40
29813;DHT22;16707;48.106;11.548;2023-07-13T13:54:54;26.10;56.70
29813;DHT22;16707;48.106;11.548;2023-07-13T13:57:22;26.30;57.60
29813;DHT22;16707;48.106;11.548;2023-07-13T13:59:50;26.50;56.00
29813;DHT22;16707;48.106;11.548;2023-07-13T14:02:24;26.60;55.80
29813;DHT22;16707;48.106;11.548;2023-07-13T14:04:55;26.50;56.00
29813;DHT22;16707;48.106;11.548;2023-07-13T14:07:24;26.40;55.50
29813;DHT22;16707;48.106;11.548;2023-07-13T14:09:54;26.70;55.70
29813;DHT22;16707;48.106;11.548;2023-07-13T14:12:22;26.70;55.90
29813;DHT22;16707;48.106;11.548;2023-07-13T14:14:51;26.60;55.90
29813;DHT22;16707;48.106;11.548;2023-07-13T14:17:21;26.40;56.60
29813;DHT22;16707;48.106;11.548;2023-07-13T14:19:50;26.00;56.10
29813;DHT22;16707;48.106;11.548;2023-07-13T14:22:22;25.90;57.00
29813;DHT22;16707;48.106;11.548;2023-07-13T14:24:49;26.30;56.40
29813;DHT22;16707;48.106;11.548;2023-07-13T14:27:18;26.40;55.80
29813;DHT22;16707;48.106;11.548;2023-07-13T14:29:45;26.30;55.10
29813;DHT22;16707;48.106;11.548;2023-07-13T14:32:12;26.10;56.00
29813;DHT22;16707;48.106;11.548;2023-07-13T14:34:39;25.90;57.00
29813;DHT22;16707;48.106;11.548;2023-07-13T14:37:12;25.70;57.30
29813;DHT22;16707;48.106;11.548;2023-07-13T14:39:40;25.30;55.50
29813;DHT22;16707;48.106;11.548;2023-07-13T14:42:10;24.90;58.30
29813;DHT22;16707;48.106;11.548;2023-07-13T14:44:38;24.70;59.40
29813;DHT22;16707;48.106;11.548;2023-07-13T14:47:07;24.60;58.70
29813;DHT22;16707;48.106;11.548;2023-07-13T14:49:36;24.50;58.30
29813;DHT22;16707;48.106;11.548;2023-07-13T14:52:29;25.00;60.90
29813;DHT22;16707;48.106;11.548;2023-07-13T14:54:56;25.50;61.40
29813;DHT22;16707;48.106;11.548;2023-07-13T14:57:22;25.70;60.40
29813;DHT22;16707;48.106;11.548;2023-07-13T14:59:51;25.70;60.20
29813;DHT22;16707;48.106;11.548;2023-07-13T15:02:27;25.60;58.60
29813;DHT22;16707;48.106;11.548;2023-07-13T15:04:56;25.40;57.20
29813;DHT22;16707;48.106;11.548;2023-07-13T15:07:23;25.00;59.80
29813;DHT22;16707;48.106;11.548;2023-07-13T15:09:51;25.00;63.40
29813;DHT22;16707;48.106;11.548;2023-07-13T15:12:18;24.90;59.60
29813;DHT22;16707;48.106;11.548;2023-07-13T15:14:45;25.00;61.10
29813;DHT22;16707;48.106;11.548;2023-07-13T15:17:24;25.10;58.90
29813;DHT22;16707;48.106;11.548;2023-07-13T15:19:54;25.20;58.30
29813;DHT22;16707;48.106;11.548;2023-07-13T15:22:21;25.10;57.70
29813;DHT22;16707;48.106;11.548;2023-07-13T15:24:48;25.00;57.20
29813;DHT22;16707;48.106;11.548;2023-07-13T15:27:16;24.90;59.70
29813;DHT22;16707;48.106;11.548;2023-07-13T15:29:42;25.00;59.00